Map

Track Data

SID SEASON NUMBER BASIN SUBBASIN NAME ISO_TIME NATURE LAT LON WMO_WIND WMO_PRES WMO_AGENCY TRACK_TYPE DIST2LAND LANDFALL IFLAG USA_AGENCY USA_ATCF_ID USA_LAT USA_LON USA_RECORD USA_STATUS USA_WIND USA_PRES USA_SSHS USA_R34_NE USA_R34_SE USA_R34_SW USA_R34_NW USA_R50_NE USA_R50_SE USA_R50_SW USA_R50_NW USA_R64_NE USA_R64_SE USA_R64_SW USA_R64_NW USA_POCI USA_ROCI USA_RMW USA_EYE TOKYO_LAT TOKYO_LON TOKYO_GRADE TOKYO_WIND TOKYO_PRES TOKYO_R50_DIR TOKYO_R50_LONG TOKYO_R50_SHORT TOKYO_R30_DIR TOKYO_R30_LONG TOKYO_R30_SHORT TOKYO_LAND CMA_LAT CMA_LON CMA_CAT CMA_WIND CMA_PRES HKO_LAT HKO_LON HKO_CAT HKO_WIND HKO_PRES NEWDELHI_LAT NEWDELHI_LON NEWDELHI_GRADE NEWDELHI_WIND NEWDELHI_PRES NEWDELHI_CI NEWDELHI_DP NEWDELHI_POCI REUNION_LAT REUNION_LON REUNION_TYPE REUNION_WIND REUNION_PRES REUNION_TNUM REUNION_CI REUNION_RMW REUNION_R34_NE REUNION_R34_SE REUNION_R34_SW REUNION_R34_NW REUNION_R50_NE REUNION_R50_SE REUNION_R50_SW REUNION_R50_NW REUNION_R64_NE REUNION_R64_SE REUNION_R64_SW REUNION_R64_NW BOM_LAT BOM_LON BOM_TYPE BOM_WIND BOM_PRES BOM_TNUM BOM_CI BOM_RMW BOM_R34_NE BOM_R34_SE BOM_R34_SW BOM_R34_NW BOM_R50_NE BOM_R50_SE BOM_R50_SW BOM_R50_NW BOM_R64_NE BOM_R64_SE BOM_R64_SW BOM_R64_NW BOM_ROCI BOM_POCI BOM_EYE BOM_POS_METHOD BOM_PRES_METHOD NADI_LAT NADI_LON NADI_CAT NADI_WIND NADI_PRES WELLINGTON_LAT WELLINGTON_LON WELLINGTON_WIND WELLINGTON_PRES DS824_LAT DS824_LON DS824_STAGE DS824_WIND DS824_PRES TD9636_LAT TD9636_LON TD9636_STAGE TD9636_WIND TD9636_PRES TD9635_LAT TD9635_LON TD9635_WIND TD9635_PRES TD9635_ROCI NEUMANN_LAT NEUMANN_LON NEUMANN_CLASS NEUMANN_WIND NEUMANN_PRES MLC_LAT MLC_LON MLC_CLASS MLC_WIND MLC_PRES USA_GUST BOM_GUST BOM_GUST_PER REUNION_GUST REUNION_GUST_PER USA_SEAHGT USA_SEARAD_NE USA_SEARAD_SE USA_SEARAD_SW USA_SEARAD_NW STORM_SPEED STORM_DIR
1969325N11280 1969 113 NA CS MARTHA 1969-11-20 12:00:00 TS 11.2000 -79.8000 25 hurdat_atl main 190 179 O_____________ hurdat_atl AL291969 11.2000 -79.8000 TD 25 -1 2 207
1969325N11280 1969 113 NA CS MARTHA 1969-11-20 15:00:00 TS 11.1000 -79.8525 main 180 169 P_____________ AL291969 11.1000 -79.8525 TD 27 -1 2 207
1969325N11280 1969 113 NA CS MARTHA 1969-11-20 18:00:00 TS 11.0000 -79.9000 30 hurdat_atl main 169 158 O_____________ hurdat_atl AL291969 11.0000 -79.9000 TD 30 -1 2 205
1969325N11280 1969 113 NA CS MARTHA 1969-11-20 21:00:00 TS 10.9000 -79.9425 main 158 149 P_____________ AL291969 10.9000 -79.9425 TD 32 -1 2 207
1969325N11280 1969 113 NA CS MARTHA 1969-11-21 00:00:00 TS 10.8000 -80.0000 35 1003 hurdat_atl main 149 138 O_____________ hurdat_atl AL291969 10.8000 -80.0000 TS 35 1003 0 3 215
1969325N11280 1969 113 NA CS MARTHA 1969-11-21 03:00:00 TS 10.6925 -80.0850 main 141 130 P_____________ AL291969 10.6925 -80.0850 TS 40 0 3 225
1969325N11280 1969 113 NA CS MARTHA 1969-11-21 06:00:00 TS 10.6000 -80.2000 45 hurdat_atl main 134 129 O_____________ hurdat_atl AL291969 10.6000 -80.2000 TS 45 0 3 239
1969325N11280 1969 113 NA CS MARTHA 1969-11-21 09:00:00 TS 10.5425 -80.3425 main 129 129 P_____________ AL291969 10.5425 -80.3425 TS 50 0 3 251
1969325N11280 1969 113 NA CS MARTHA 1969-11-21 12:00:00 TS 10.5000 -80.5000 55 hurdat_atl main 142 142 O_____________ hurdat_atl AL291969 10.5000 -80.5000 TS 55 0 3 253
1969325N11280 1969 113 NA CS MARTHA 1969-11-21 15:00:00 TS 10.4500 -80.6575 main 154 145 P_____________ AL291969 10.4500 -80.6575 TS 60 0 3 251
1969325N11280 1969 113 NA CS MARTHA 1969-11-21 18:00:00 TS 10.4000 -80.8000 65 hurdat_atl main 149 141 O_____________ hurdat_atl AL291969 10.4000 -80.8000 HU 65 1 3 247
1969325N11280 1969 113 NA CS MARTHA 1969-11-21 21:00:00 TS 10.3425 -80.9225 main 141 141 P_____________ AL291969 10.3425 -80.9225 HU 70 1 2 243
1969325N11280 1969 113 NA CS MARTHA 1969-11-22 00:00:00 TS 10.3000 -81.0000 75 hurdat_atl main 145 145 O_____________ hurdat_atl AL291969 10.3000 -81.0000 HU 75 1 1 241
1969325N11280 1969 113 NA CS MARTHA 1969-11-22 03:00:00 TS 10.2925 -81.0150 main 145 145 P_____________ AL291969 10.2925 -81.0150 HU 77 1 0 0
1969325N11280 1969 113 NA CS MARTHA 1969-11-22 06:00:00 TS 10.3000 -81.0000 80 hurdat_atl main 145 145 O_____________ hurdat_atl AL291969 10.3000 -81.0000 HU 80 1 0 0
1969325N11280 1969 113 NA CS MARTHA 1969-11-22 09:00:00 TS 10.3075 -81.0000 main 145 145 P_____________ AL291969 10.3075 -81.0000 HU 80 1 0 0
1969325N11280 1969 113 NA CS MARTHA 1969-11-22 12:00:00 TS 10.3000 -81.0000 80 979 hurdat_atl main 145 145 O_____________ hurdat_atl AL291969 10.3000 -81.0000 HU 80 979 1 1 153
1969325N11280 1969 113 NA CS MARTHA 1969-11-22 15:00:00 TS 10.2575 -81.0000 main 145 134 P_____________ AL291969 10.2575 -81.0000 HU 77 980 1 1 0
1969325N11280 1969 113 NA CS MARTHA 1969-11-22 18:00:00 TS 10.2000 -81.0000 75 982 hurdat_atl main 134 134 O_____________ hurdat_atl AL291969 10.2000 -81.0000 HU 75 982 1 1 0
1969325N11280 1969 113 NA CS MARTHA 1969-11-22 21:00:00 TS 10.1500 -81.0000 main 134 124 P_____________ AL291969 10.1500 -81.0000 HU 72 984 1 1 0
1969325N11280 1969 113 NA CS MARTHA 1969-11-23 00:00:00 TS 10.1000 -81.0000 70 986 hurdat_atl main 124 124 O_____________ hurdat_atl AL291969 10.1000 -81.0000 HU 70 986 1 1 0
1969325N11280 1969 113 NA CS MARTHA 1969-11-23 03:00:00 TS 10.0500 -81.0000 main 124 114 P_____________ AL291969 10.0500 -81.0000 HU 62 989 0 1 0
1969325N11280 1969 113 NA CS MARTHA 1969-11-23 06:00:00 TS 10.0000 -81.0000 55 hurdat_atl main 114 114 I_____________ hurdat_atl AL291969 10.0000 -81.0000 TS 55 992 0 1 0
1969325N11280 1969 113 NA CS MARTHA 1969-11-23 09:00:00 TS 9.95750 -81.0000 main 114 105 P_____________ AL291969 9.95750 -81.0000 TS 50 995 0 1 0
1969325N11280 1969 113 NA CS MARTHA 1969-11-23 12:00:00 TS 9.90000 -81.0000 45 999 hurdat_atl main 105 95 O_____________ hurdat_atl AL291969 9.90000 -81.0000 TS 45 999 0 1 177
1969325N11280 1969 113 NA CS MARTHA 1969-11-23 15:00:00 TS 9.81500 -81.0000 main 95 86 P_____________ AL291969 9.81500 -81.0000 TS 45 999 0 2 172
1969325N11280 1969 113 NA CS MARTHA 1969-11-23 18:00:00 TS 9.70000 -81.0000 45 1000 hurdat_atl main 86 78 O_____________ hurdat_atl AL291969 9.70000 -81.0000 TS 45 1000 0 3 177
1969325N11280 1969 113 NA CS MARTHA 1969-11-23 21:00:00 TS 9.55000 -81.0000 main 78 60 P_____________ AL291969 9.55000 -81.0000 TS 45 999 0 3 0
1969325N11280 1969 113 NA CS MARTHA 1969-11-24 00:00:00 TS 9.40000 -81.0000 45 999 hurdat_atl main 60 49 O_____________ hurdat_atl AL291969 9.40000 -81.0000 TS 45 999 0 3 0
1969325N11280 1969 113 NA CS MARTHA 1969-11-24 03:00:00 TS 9.29250 -81.0000 main 49 40 P_____________ AL291969 9.29250 -81.0000 TS 45 999 0 2 172
1969325N11280 1969 113 NA CS MARTHA 1969-11-24 06:00:00 TS 9.20000 -81.0000 45 hurdat_atl main 40 31 I_____________ hurdat_atl AL291969 9.20000 -81.0000 TS 45 999 0 2 173
1969325N11280 1969 113 NA CS MARTHA 1969-11-24 09:00:00 TS 9.10000 -80.9925 main 31 22 P_____________ AL291969 9.10000 -80.9925 TS 45 999 0 2 172
1969325N11280 1969 113 NA CS MARTHA 1969-11-24 12:00:00 TS 9.00000 -81.0000 45 1000 hurdat_atl main 22 11 O_____________ hurdat_atl AL291969 9.00000 -81.0000 TS 45 1000 0 2 193
1969325N11280 1969 113 NA CS MARTHA 1969-11-24 15:00:00 TS 8.89250 -81.0350 main 11 0 P_____________ AL291969 8.89250 -81.0350 TS 42 0 2 207
1969325N11280 1969 113 NA CS MARTHA 1969-11-24 18:00:00 TS 8.80000 -81.1000 40 hurdat_atl main 0 0 O_____________ hurdat_atl AL291969 8.80000 -81.1000 L TS 40 0 2 224
1969325N11280 1969 113 NA NA MARTHA 1969-11-24 21:00:00 TS 8.74250 -81.1850 main 0 0 P_____________ AL291969 8.74250 -81.1850 TS 35 0 2 243
1969325N11280 1969 113 NA NA MARTHA 1969-11-25 00:00:00 TS 8.70000 -81.3000 30 hurdat_atl main 0 0 O_____________ hurdat_atl AL291969 8.70000 -81.3000 TD 30 -1 3 249
1969325N11280 1969 113 NA NA MARTHA 1969-11-25 03:00:00 TS 8.64999 -81.4350 main 0 0 P_____________ AL291969 8.64999 -81.4350 TD 30 -1 3 251
1969325N11280 1969 113 NA NA MARTHA 1969-11-25 06:00:00 TS 8.60000 -81.6000 30 hurdat_atl main 0 0 O_____________ hurdat_atl AL291969 8.60000 -81.6000 TD 30 -1 4 254
1969325N11280 1969 113 NA NA MARTHA 1969-11-25 09:00:00 TS 8.55003 -81.7925 main 0 0 P_____________ AL291969 8.55003 -81.7925 TD 27 -1 4 256
1969325N11280 1969 113 NA NA MARTHA 1969-11-25 12:00:00 TS 8.50000 -82.0000 25 hurdat_atl main 0 O_____________ hurdat_atl AL291969 8.50000 -82.0000 TD 25 -1 4 256

About IBTrACS Database

This database is a web-friendly format of International Best Track Archive for Climate Stewardship (IBTrACS), a global best track data archive curated by NOAA dating back to 1842.

Updated: 2022-11-16